sensor_id;sensor_type;location;lat;lon;timestamp;temperature;humidity
20171;DHT22;10245;51.344;6.620;2023-06-14T00:00:38;19.00;51.30
20171;DHT22;10245;51.344;6.620;2023-06-14T00:03:04;19.20;51.00
20171;DHT22;10245;51.344;6.620;2023-06-14T00:05:28;19.10;50.70
20171;DHT22;10245;51.344;6.620;2023-06-14T00:07:55;19.10;50.60
20171;DHT22;10245;51.344;6.620;2023-06-14T00:10:21;19.10;52.10
20171;DHT22;10245;51.344;6.620;2023-06-14T00:12:44;19.00;51.50
20171;DHT22;10245;51.344;6.620;2023-06-14T00:15:07;19.00;51.50
20171;DHT22;10245;51.344;6.620;2023-06-14T00:17:32;19.00;51.40
20171;DHT22;10245;51.344;6.620;2023-06-14T00:19:56;19.00;52.20
20171;DHT22;10245;51.344;6.620;2023-06-14T00:22:19;18.90;53.70
20171;DHT22;10245;51.344;6.620;2023-06-14T00:24:44;18.80;53.20
20171;DHT22;10245;51.344;6.620;2023-06-14T00:27:07;18.90;54.00
20171;DHT22;10245;51.344;6.620;2023-06-14T00:29:31;18.80;53.80
20171;DHT22;10245;51.344;6.620;2023-06-14T00:31:54;18.70;54.40
20171;DHT22;10245;51.344;6.620;2023-06-14T00:34:19;18.50;55.70
20171;DHT22;10245;51.344;6.620;2023-06-14T00:36:42;18.40;57.00
20171;DHT22;10245;51.344;6.620;2023-06-14T00:39:08;18.30;56.70
20171;DHT22;10245;51.344;6.620;2023-06-14T00:41:34;18.10;56.90
20171;DHT22;10245;51.344;6.620;2023-06-14T00:43:57;18.10;58.20
20171;DHT22;10245;51.344;6.620;2023-06-14T00:46:21;18.10;56.90
20171;DHT22;10245;51.344;6.620;2023-06-14T00:48:45;18.00;56.20
20171;DHT22;10245;51.344;6.620;2023-06-14T00:51:09;18.00;58.70
20171;DHT22;10245;51.344;6.620;2023-06-14T00:53:32;18.00;59.90
20171;DHT22;10245;51.344;6.620;2023-06-14T00:55:57;18.00;57.20
20171;DHT22;10245;51.344;6.620;2023-06-14T00:58:22;17.90;57.90
20171;DHT22;10245;51.344;6.620;2023-06-14T01:00:46;17.90;58.40
20171;DHT22;10245;51.344;6.620;2023-06-14T01:03:09;18.00;59.40
20171;DHT22;10245;51.344;6.620;2023-06-14T01:05:34;17.90;58.80
20171;DHT22;10245;51.344;6.620;2023-06-14T01:08:10;17.80;59.60
20171;DHT22;10245;51.344;6.620;2023-06-14T01:10:46;17.80;58.10
20171;DHT22;10245;51.344;6.620;2023-06-14T01:13:20;17.80;58.10
20171;DHT22;10245;51.344;6.620;2023-06-14T01:15:47;17.80;59.00
20171;DHT22;10245;51.344;6.620;2023-06-14T01:18:11;17.80;59.50
20171;DHT22;10245;51.344;6.620;2023-06-14T01:20:39;17.80;58.00
20171;DHT22;10245;51.344;6.620;2023-06-14T01:23:04;17.80;59.00
20171;DHT22;10245;51.344;6.620;2023-06-14T01:25:27;17.90;57.50
20171;DHT22;10245;51.344;6.620;2023-06-14T01:27:52;17.90;57.50
20171;DHT22;10245;51.344;6.620;2023-06-14T01:30:20;17.90;57.30
20171;DHT22;10245;51.344;6.620;2023-06-14T01:32:45;17.90;57.20
20171;DHT22;10245;51.344;6.620;2023-06-14T01:35:09;18.00;56.70
20171;DHT22;10245;51.344;6.620;2023-06-14T01:37:32;18.00;56.80
20171;DHT22;10245;51.344;6.620;2023-06-14T01:39:58;18.00;56.80
20171;DHT22;10245;51.344;6.620;2023-06-14T01:42:23;18.00;55.90
20171;DHT22;10245;51.344;6.620;2023-06-14T01:44:46;18.10;56.20
20171;DHT22;10245;51.344;6.620;2023-06-14T01:47:10;18.10;56.10
20171;DHT22;10245;51.344;6.620;2023-06-14T01:49:35;18.00;56.00
20171;DHT22;10245;51.344;6.620;2023-06-14T01:51:58;18.00;56.30
20171;DHT22;10245;51.344;6.620;2023-06-14T01:54:22;18.00;56.10
20171;DHT22;10245;51.344;6.620;2023-06-14T01:56:48;18.00;56.70
20171;DHT22;10245;51.344;6.620;2023-06-14T01:59:12;18.00;56.20
20171;DHT22;10245;51.344;6.620;2023-06-14T02:01:35;17.90;56.50
20171;DHT22;10245;51.344;6.620;2023-06-14T02:03:58;17.90;56.20
20171;DHT22;10245;51.344;6.620;2023-06-14T02:06:21;17.90;57.10
20171;DHT22;10245;51.344;6.620;2023-06-14T02:08:45;17.80;56.90
20171;DHT22;10245;51.344;6.620;2023-06-14T02:11:08;17.80;56.90
20171;DHT22;10245;51.344;6.620;2023-06-14T02:13:33;17.80;57.90
20171;DHT22;10245;51.344;6.620;2023-06-14T02:15:56;17.80;57.50
20171;DHT22;10245;51.344;6.620;2023-06-14T02:18:23;17.80;57.60
20171;DHT22;10245;51.344;6.620;2023-06-14T02:20:47;17.60;58.00
20171;DHT22;10245;51.344;6.620;2023-06-14T02:23:10;17.60;58.10
20171;DHT22;10245;51.344;6.620;2023-06-14T02:25:33;17.50;56.90
20171;DHT22;10245;51.344;6.620;2023-06-14T02:27:57;17.50;57.20
20171;DHT22;10245;51.344;6.620;2023-06-14T02:30:21;17.50;57.00
20171;DHT22;10245;51.344;6.620;2023-06-14T02:32:45;17.50;57.40
20171;DHT22;10245;51.344;6.620;2023-06-14T02:35:10;17.50;57.30
20171;DHT22;10245;51.344;6.620;2023-06-14T02:37:33;17.50;58.40
20171;DHT22;10245;51.344;6.620;2023-06-14T02:39:56;17.50;57.60
20171;DHT22;10245;51.344;6.620;2023-06-14T02:42:20;17.40;58.00
20171;DHT22;10245;51.344;6.620;2023-06-14T02:44:43;17.30;57.50
20171;DHT22;10245;51.344;6.620;2023-06-14T02:47:08;17.40;57.40
20171;DHT22;10245;51.344;6.620;2023-06-14T02:49:32;17.40;57.40
20171;DHT22;10245;51.344;6.620;2023-06-14T02:51:56;17.30;57.20
20171;DHT22;10245;51.344;6.620;2023-06-14T02:54:20;17.30;57.70
20171;DHT22;10245;51.344;6.620;2023-06-14T02:56:43;17.30;57.00
20171;DHT22;10245;51.344;6.620;2023-06-14T02:59:07;17.40;56.90
20171;DHT22;10245;51.344;6.620;2023-06-14T03:01:32;17.30;57.30
20171;DHT22;10245;51.344;6.620;2023-06-14T03:04:02;17.30;57.80
20171;DHT22;10245;51.344;6.620;2023-06-14T03:06:29;17.20;58.20
20171;DHT22;10245;51.344;6.620;2023-06-14T03:08:54;17.20;58.40
20171;DHT22;10245;51.344;6.620;2023-06-14T03:11:21;17.20;58.40
20171;DHT22;10245;51.344;6.620;2023-06-14T03:13:44;17.10;58.30
20171;DHT22;10245;51.344;6.620;2023-06-14T03:16:08;17.10;57.40
20171;DHT22;10245;51.344;6.620;2023-06-14T03:18:34;17.10;57.80
20171;DHT22;10245;51.344;6.620;2023-06-14T03:21:01;17.10;59.70
20171;DHT22;10245;51.344;6.620;2023-06-14T03:23:26;17.00;58.00
20171;DHT22;10245;51.344;6.620;2023-06-14T03:25:49;17.10;58.40
20171;DHT22;10245;51.344;6.620;2023-06-14T03:28:13;17.00;59.20
20171;DHT22;10245;51.344;6.620;2023-06-14T03:30:36;17.00;58.40
20171;DHT22;10245;51.344;6.620;2023-06-14T03:33:00;17.00;59.10
20171;DHT22;10245;51.344;6.620;2023-06-14T03:35:24;17.00;59.10
20171;DHT22;10245;51.344;6.620;2023-06-14T03:37:49;17.00;58.80
20171;DHT22;10245;51.344;6.620;2023-06-14T03:40:15;17.00;59.60
20171;DHT22;10245;51.344;6.620;2023-06-14T03:42:43;17.00;59.10
20171;DHT22;10245;51.344;6.620;2023-06-14T03:45:07;16.90;59.30
20171;DHT22;10245;51.344;6.620;2023-06-14T03:47:31;17.00;58.90
20171;DHT22;10245;51.344;6.620;2023-06-14T03:49:55;16.90;59.60
20171;DHT22;10245;51.344;6.620;2023-06-14T03:52:18;16.90;60.20
20171;DHT22;10245;51.344;6.620;2023-06-14T03:54:44;16.90;59.50
20171;DHT22;10245;51.344;6.620;2023-06-14T03:57:12;16.80;60.70
20171;DHT22;10245;51.344;6.620;2023-06-14T03:59:37;16.80;60.70
20171;DHT22;10245;51.344;6.620;2023-06-14T04:02:00;16.70;61.00
20171;DHT22;10245;51.344;6.620;2023-06-14T04:04:24;16.60;62.30
20171;DHT22;10245;51.344;6.620;2023-06-14T04:06:51;16.50;63.30
20171;DHT22;10245;51.344;6.620;2023-06-14T04:09:14;16.50;64.60
20171;DHT22;10245;51.344;6.620;2023-06-14T04:11:39;16.50;66.00
20171;DHT22;10245;51.344;6.620;2023-06-14T04:14:02;16.50;62.60
20171;DHT22;10245;51.344;6.620;2023-06-14T04:16:26;16.50;64.50
20171;DHT22;10245;51.344;6.620;2023-06-14T04:18:50;16.50;63.80
20171;DHT22;10245;51.344;6.620;2023-06-14T04:21:14;16.50;62.40
20171;DHT22;10245;51.344;6.620;2023-06-14T04:23:37;16.50;62.70
20171;DHT22;10245;51.344;6.620;2023-06-14T04:26:01;16.50;64.40
20171;DHT22;10245;51.344;6.620;2023-06-14T04:28:26;16.40;62.90
20171;DHT22;10245;51.344;6.620;2023-06-14T04:30:51;16.50;61.30
20171;DHT22;10245;51.344;6.620;2023-06-14T04:33:15;16.60;61.70
20171;DHT22;10245;51.344;6.620;2023-06-14T04:35:40;16.70;60.60
20171;DHT22;10245;51.344;6.620;2023-06-14T04:38:04;16.80;60.80
20171;DHT22;10245;51.344;6.620;2023-06-14T04:40:32;16.90;59.70
20171;DHT22;10245;51.344;6.620;2023-06-14T04:42:59;16.80;60.60
20171;DHT22;10245;51.344;6.620;2023-06-14T04:45:24;16.90;60.40
20171;DHT22;10245;51.344;6.620;2023-06-14T04:47:54;16.90;59.30
20171;DHT22;10245;51.344;6.620;2023-06-14T04:50:21;16.90;60.20
20171;DHT22;10245;51.344;6.620;2023-06-14T04:52:44;16.90;59.50
20171;DHT22;10245;51.344;6.620;2023-06-14T04:55:10;17.00;60.00
20171;DHT22;10245;51.344;6.620;2023-06-14T04:57:35;17.00;60.60
20171;DHT22;10245;51.344;6.620;2023-06-14T05:00:00;17.00;60.00
20171;DHT22;10245;51.344;6.620;2023-06-14T05:02:27;17.10;60.20
20171;DHT22;10245;51.344;6.620;2023-06-14T05:04:53;17.10;60.20
20171;DHT22;10245;51.344;6.620;2023-06-14T05:07:18;17.10;58.80
20171;DHT22;10245;51.344;6.620;2023-06-14T05:09:44;17.20;59.70
20171;DHT22;10245;51.344;6.620;2023-06-14T05:12:08;17.20;59.10
20171;DHT22;10245;51.344;6.620;2023-06-14T05:14:31;17.30;59.40
20171;DHT22;10245;51.344;6.620;2023-06-14T05:16:55;17.30;58.40
20171;DHT22;10245;51.344;6.620;2023-06-14T05:19:20;17.40;58.10
20171;DHT22;10245;51.344;6.620;2023-06-14T05:21:44;17.50;57.60
20171;DHT22;10245;51.344;6.620;2023-06-14T05:24:08;17.60;57.00
20171;DHT22;10245;51.344;6.620;2023-06-14T05:26:31;17.80;54.90
20171;DHT22;10245;51.344;6.620;2023-06-14T05:28:55;17.90;54.80
20171;DHT22;10245;51.344;6.620;2023-06-14T05:31:19;17.90;54.20
20171;DHT22;10245;51.344;6.620;2023-06-14T05:33:42;18.00;54.20
20171;DHT22;10245;51.344;6.620;2023-06-14T05:36:07;18.10;54.50
20171;DHT22;10245;51.344;6.620;2023-06-14T05:38:30;18.20;54.10
20171;DHT22;10245;51.344;6.620;2023-06-14T05:40:53;18.30;54.70
20171;DHT22;10245;51.344;6.620;2023-06-14T05:43:16;18.50;54.60
20171;DHT22;10245;51.344;6.620;2023-06-14T05:45:40;18.70;53.50
20171;DHT22;10245;51.344;6.620;2023-06-14T05:48:03;18.80;53.00
20171;DHT22;10245;51.344;6.620;2023-06-14T05:50:27;18.90;53.40
20171;DHT22;10245;51.344;6.620;2023-06-14T05:52:51;19.00;52.00
20171;DHT22;10245;51.344;6.620;2023-06-14T05:55:16;19.10;52.00
20171;DHT22;10245;51.344;6.620;2023-06-14T05:57:40;19.30;51.40
20171;DHT22;10245;51.344;6.620;2023-06-14T06:00:04;19.50;52.60
20171;DHT22;10245;51.344;6.620;2023-06-14T06:02:33;19.40;52.20
20171;DHT22;10245;51.344;6.620;2023-06-14T06:04:56;19.60;51.00
20171;DHT22;10245;51.344;6.620;2023-06-14T06:07:20;19.80;52.10
20171;DHT22;10245;51.344;6.620;2023-06-14T06:09:45;19.70;49.80
20171;DHT22;10245;51.344;6.620;2023-06-14T06:12:08;19.90;50.50
20171;DHT22;10245;51.344;6.620;2023-06-14T06:14:32;20.10;49.60
20171;DHT22;10245;51.344;6.620;2023-06-14T06:16:55;20.30;50.70
20171;DHT22;10245;51.344;6.620;2023-06-14T06:19:18;20.20;50.40
20171;DHT22;10245;51.344;6.620;2023-06-14T06:21:42;20.40;50.10
20171;DHT22;10245;51.344;6.620;2023-06-14T06:24:05;20.50;48.40
20171;DHT22;10245;51.344;6.620;2023-06-14T06:26:30;20.60;48.70
20171;DHT22;10245;51.344;6.620;2023-06-14T06:28:53;21.10;48.40
20171;DHT22;10245;51.344;6.620;2023-06-14T06:31:17;21.00;49.50
20171;DHT22;10245;51.344;6.620;2023-06-14T06:33:40;20.80;47.70
20171;DHT22;10245;51.344;6.620;2023-06-14T06:36:04;20.90;47.20
20171;DHT22;10245;51.344;6.620;2023-06-14T06:38:28;21.00;48.20
20171;DHT22;10245;51.344;6.620;2023-06-14T06:40:51;21.30;47.40
20171;DHT22;10245;51.344;6.620;2023-06-14T06:43:17;21.40;47.50
20171;DHT22;10245;51.344;6.620;2023-06-14T06:45:42;21.50;45.90
20171;DHT22;10245;51.344;6.620;2023-06-14T06:48:06;21.60;46.10
20171;DHT22;10245;51.344;6.620;2023-06-14T06:50:31;21.60;45.70
20171;DHT22;10245;51.344;6.620;2023-06-14T06:52:55;21.80;45.00
20171;DHT22;10245;51.344;6.620;2023-06-14T06:55:18;22.10;45.90
20171;DHT22;10245;51.344;6.620;2023-06-14T06:57:42;22.40;44.20
20171;DHT22;10245;51.344;6.620;2023-06-14T07:00:08;22.20;45.10
20171;DHT22;10245;51.344;6.620;2023-06-14T07:02:32;22.10;45.30
20171;DHT22;10245;51.344;6.620;2023-06-14T07:04:55;22.50;44.50
20171;DHT22;10245;51.344;6.620;2023-06-14T07:07:19;22.50;44.10
20171;DHT22;10245;51.344;6.620;2023-06-14T07:09:42;22.40;43.10
20171;DHT22;10245;51.344;6.620;2023-06-14T07:12:06;22.30;43.10
20171;DHT22;10245;51.344;6.620;2023-06-14T07:14:30;22.30;43.30
20171;DHT22;10245;51.344;6.620;2023-06-14T07:16:54;22.50;43.80
20171;DHT22;10245;51.344;6.620;2023-06-14T07:19:18;22.60;43.10
20171;DHT22;10245;51.344;6.620;2023-06-14T07:21:41;22.60;42.90
20171;DHT22;10245;51.344;6.620;2023-06-14T07:24:05;22.70;44.00
20171;DHT22;10245;51.344;6.620;2023-06-14T07:26:29;23.00;41.90
20171;DHT22;10245;51.344;6.620;2023-06-14T07:28:53;22.90;41.90
20171;DHT22;10245;51.344;6.620;2023-06-14T07:31:16;22.90;41.50
20171;DHT22;10245;51.344;6.620;2023-06-14T07:33:42;23.10;42.70
20171;DHT22;10245;51.344;6.620;2023-06-14T07:36:06;23.20;39.60
20171;DHT22;10245;51.344;6.620;2023-06-14T07:38:29;22.90;41.20
20171;DHT22;10245;51.344;6.620;2023-06-14T07:40:52;23.00;41.10
20171;DHT22;10245;51.344;6.620;2023-06-14T07:43:16;23.20;42.50
20171;DHT22;10245;51.344;6.620;2023-06-14T07:45:41;23.00;41.10
20171;DHT22;10245;51.344;6.620;2023-06-14T07:48:23;22.90;42.10
20171;DHT22;10245;51.344;6.620;2023-06-14T07:50:51;23.30;40.80
20171;DHT22;10245;51.344;6.620;2023-06-14T07:53:14;23.10;39.40
20171;DHT22;10245;51.344;6.620;2023-06-14T07:55:38;23.30;39.90
20171;DHT22;10245;51.344;6.620;2023-06-14T07:58:14;23.50;39.60
20171;DHT22;10245;51.344;6.620;2023-06-14T08:00:37;23.50;40.30
20171;DHT22;10245;51.344;6.620;2023-06-14T08:03:01;23.70;41.80
20171;DHT22;10245;51.344;6.620;2023-06-14T08:05:25;23.50;39.20
20171;DHT22;10245;51.344;6.620;2023-06-14T08:07:50;23.50;40.50
20171;DHT22;10245;51.344;6.620;2023-06-14T08:10:13;23.90;41.30
20171;DHT22;10245;51.344;6.620;2023-06-14T08:12:37;24.00;39.10
20171;DHT22;10245;51.344;6.620;2023-06-14T08:15:00;24.00;39.70
20171;DHT22;10245;51.344;6.620;2023-06-14T08:17:35;24.00;38.80
20171;DHT22;10245;51.344;6.620;2023-06-14T08:19:59;24.00;37.90
20171;DHT22;10245;51.344;6.620;2023-06-14T08:22:22;24.10;39.50
20171;DHT22;10245;51.344;6.620;2023-06-14T08:24:47;24.00;41.30
20171;DHT22;10245;51.344;6.620;2023-06-14T08:27:11;24.40;37.20
20171;DHT22;10245;51.344;6.620;2023-06-14T08:29:35;24.50;38.50
20171;DHT22;10245;51.344;6.620;2023-06-14T08:32:00;24.60;39.40
20171;DHT22;10245;51.344;6.620;2023-06-14T08:34:24;24.60;37.60
20171;DHT22;10245;51.344;6.620;2023-06-14T08:36:47;24.20;38.20
20171;DHT22;10245;51.344;6.620;2023-06-14T08:39:10;24.30;37.70
20171;DHT22;10245;51.344;6.620;2023-06-14T08:41:35;24.40;39.00
20171;DHT22;10245;51.344;6.620;2023-06-14T08:43:59;24.80;37.90
20171;DHT22;10245;51.344;6.620;2023-06-14T08:46:25;24.70;37.00
20171;DHT22;10245;51.344;6.620;2023-06-14T08:48:51;24.50;38.60
20171;DHT22;10245;51.344;6.620;2023-06-14T08:51:18;25.00;38.30
20171;DHT22;10245;51.344;6.620;2023-06-14T08:53:43;24.80;38.70
20171;DHT22;10245;51.344;6.620;2023-06-14T08:56:08;24.70;37.60
20171;DHT22;10245;51.344;6.620;2023-06-14T08:58:36;24.80;37.90
20171;DHT22;10245;51.344;6.620;2023-06-14T09:01:05;24.30;39.00
20171;DHT22;10245;51.344;6.620;2023-06-14T09:03:29;24.30;40.50
20171;DHT22;10245;51.344;6.620;2023-06-14T09:05:56;24.90;38.60
20171;DHT22;10245;51.344;6.620;2023-06-14T09:08:20;24.50;42.50
20171;DHT22;10245;51.344;6.620;2023-06-14T09:10:45;24.80;37.70
20171;DHT22;10245;51.344;6.620;2023-06-14T09:13:08;24.60;40.60
20171;DHT22;10245;51.344;6.620;2023-06-14T09:15:34;24.90;40.20
20171;DHT22;10245;51.344;6.620;2023-06-14T09:17:57;24.70;38.70
20171;DHT22;10245;51.344;6.620;2023-06-14T09:20:21;24.50;38.60
20171;DHT22;10245;51.344;6.620;2023-06-14T09:22:47;24.70;38.90
20171;DHT22;10245;51.344;6.620;2023-06-14T09:25:10;24.70;41.00
20171;DHT22;10245;51.344;6.620;2023-06-14T09:27:53;25.00;43.40
20171;DHT22;10245;51.344;6.620;2023-06-14T09:30:20;24.80;40.10
20171;DHT22;10245;51.344;6.620;2023-06-14T09:32:45;24.50;38.10
20171;DHT22;10245;51.344;6.620;2023-06-14T09:35:09;24.50;40.20
20171;DHT22;10245;51.344;6.620;2023-06-14T09:37:32;24.80;40.90
20171;DHT22;10245;51.344;6.620;2023-06-14T09:39:56;24.70;39.10
20171;DHT22;10245;51.344;6.620;2023-06-14T09:42:19;25.00;39.70
20171;DHT22;10245;51.344;6.620;2023-06-14T09:44:43;24.50;39.80
20171;DHT22;10245;51.344;6.620;2023-06-14T09:47:06;24.90;40.00
20171;DHT22;10245;51.344;6.620;2023-06-14T09:49:31;24.90;39.60
20171;DHT22;10245;51.344;6.620;2023-06-14T09:51:56;24.60;40.80
20171;DHT22;10245;51.344;6.620;2023-06-14T09:54:22;25.10;41.80
20171;DHT22;10245;51.344;6.620;2023-06-14T09:56:48;24.80;42.40
20171;DHT22;10245;51.344;6.620;2023-06-14T09:59:13;24.80;40.80
20171;DHT22;10245;51.344;6.620;2023-06-14T10:01:43;25.10;40.10
20171;DHT22;10245;51.344;6.620;2023-06-14T10:04:07;24.60;38.40
20171;DHT22;10245;51.344;6.620;2023-06-14T10:06:36;24.70;38.60
20171;DHT22;10245;51.344;6.620;2023-06-14T10:09:02;24.60;40.20
20171;DHT22;10245;51.344;6.620;2023-06-14T10:11:28;25.00;40.40
20171;DHT22;10245;51.344;6.620;2023-06-14T10:13:51;25.10;39.50
20171;DHT22;10245;51.344;6.620;2023-06-14T10:16:18;25.10;38.70
20171;DHT22;10245;51.344;6.620;2023-06-14T10:18:50;24.90;38.00
20171;DHT22;10245;51.344;6.620;2023-06-14T10:21:21;24.80;37.00
20171;DHT22;10245;51.344;6.620;2023-06-14T10:23:50;24.90;39.70
20171;DHT22;10245;51.344;6.620;2023-06-14T10:26:19;25.00;37.90
20171;DHT22;10245;51.344;6.620;2023-06-14T10:28:56;25.00;40.60
20171;DHT22;10245;51.344;6.620;2023-06-14T10:31:21;25.10;38.20
20171;DHT22;10245;51.344;6.620;2023-06-14T10:33:49;25.00;38.10
20171;DHT22;10245;51.344;6.620;2023-06-14T10:36:34;25.00;37.50
20171;DHT22;10245;51.344;6.620;2023-06-14T10:39:00;24.90;38.00
20171;DHT22;10245;51.344;6.620;2023-06-14T10:41:27;25.00;40.20
20171;DHT22;10245;51.344;6.620;2023-06-14T10:43:51;25.50;39.50
20171;DHT22;10245;51.344;6.620;2023-06-14T10:46:16;25.10;37.10
20171;DHT22;10245;51.344;6.620;2023-06-14T10:48:40;24.70;37.80
20171;DHT22;10245;51.344;6.620;2023-06-14T10:51:04;25.10;38.30
20171;DHT22;10245;51.344;6.620;2023-06-14T10:53:28;25.20;36.80
20171;DHT22;10245;51.344;6.620;2023-06-14T10:55:53;25.30;35.80
20171;DHT22;10245;51.344;6.620;2023-06-14T10:58:16;25.50;37.60
20171;DHT22;10245;51.344;6.620;2023-06-14T11:00:43;25.50;36.40
20171;DHT22;10245;51.344;6.620;2023-06-14T11:03:31;25.10;36.20
20171;DHT22;10245;51.344;6.620;2023-06-14T11:06:13;25.50;36.60
20171;DHT22;10245;51.344;6.620;2023-06-14T11:12:06;26.10;35.20
20171;DHT22;10245;51.344;6.620;2023-06-14T11:14:32;25.80;36.00
20171;DHT22;10245;51.344;6.620;2023-06-14T11:16:55;25.20;34.80
20171;DHT22;10245;51.344;6.620;2023-06-14T11:19:18;25.70;35.50
20171;DHT22;10245;51.344;6.620;2023-06-14T11:21:41;25.90;35.80
20171;DHT22;10245;51.344;6.620;2023-06-14T11:24:10;26.10;35.70
20171;DHT22;10245;51.344;6.620;2023-06-14T11:26:33;25.10;38.30
20171;DHT22;10245;51.344;6.620;2023-06-14T11:28:59;25.10;36.70
20171;DHT22;10245;51.344;6.620;2023-06-14T11:31:23;25.20;37.80
20171;DHT22;10245;51.344;6.620;2023-06-14T11:33:49;25.50;38.50
20171;DHT22;10245;51.344;6.620;2023-06-14T11:36:13;25.40;39.00
20171;DHT22;10245;51.344;6.620;2023-06-14T11:38:36;25.40;36.30
20171;DHT22;10245;51.344;6.620;2023-06-14T11:40:59;25.30;37.10
20171;DHT22;10245;51.344;6.620;2023-06-14T11:43:25;25.50;36.30
20171;DHT22;10245;51.344;6.620;2023-06-14T11:45:49;25.50;36.60
20171;DHT22;10245;51.344;6.620;2023-06-14T11:48:39;25.90;40.20
20171;DHT22;10245;51.344;6.620;2023-06-14T11:51:03;26.00;33.80
20171;DHT22;10245;51.344;6.620;2023-06-14T11:53:26;25.50;36.10
20171;DHT22;10245;51.344;6.620;2023-06-14T11:55:49;25.30;39.30
20171;DHT22;10245;51.344;6.620;2023-06-14T11:58:13;25.20;38.50
20171;DHT22;10245;51.344;6.620;2023-06-14T12:00:37;25.60;38.90
20171;DHT22;10245;51.344;6.620;2023-06-14T12:03:02;25.90;37.60
20171;DHT22;10245;51.344;6.620;2023-06-14T12:05:25;25.60;37.90
20171;DHT22;10245;51.344;6.620;2023-06-14T12:07:49;25.90;38.90
20171;DHT22;10245;51.344;6.620;2023-06-14T12:10:15;25.70;38.10
20171;DHT22;10245;51.344;6.620;2023-06-14T12:12:39;25.90;36.70
20171;DHT22;10245;51.344;6.620;2023-06-14T12:15:04;25.60;38.60
20171;DHT22;10245;51.344;6.620;2023-06-14T12:17:32;25.90;37.40
20171;DHT22;10245;51.344;6.620;2023-06-14T12:19:57;26.10;39.30
20171;DHT22;10245;51.344;6.620;2023-06-14T12:22:20;26.00;38.90
20171;DHT22;10245;51.344;6.620;2023-06-14T12:24:43;25.80;38.10
20171;DHT22;10245;51.344;6.620;2023-06-14T12:27:08;25.50;38.20
20171;DHT22;10245;51.344;6.620;2023-06-14T12:29:33;25.90;41.10
20171;DHT22;10245;51.344;6.620;2023-06-14T12:31:56;25.80;37.90
20171;DHT22;10245;51.344;6.620;2023-06-14T12:34:20;25.70;40.40
20171;DHT22;10245;51.344;6.620;2023-06-14T12:36:45;25.60;39.90
20171;DHT22;10245;51.344;6.620;2023-06-14T12:39:08;26.20;41.10
20171;DHT22;10245;51.344;6.620;2023-06-14T12:41:31;26.60;38.80
20171;DHT22;10245;51.344;6.620;2023-06-14T12:43:55;26.20;39.50
20171;DHT22;10245;51.344;6.620;2023-06-14T12:46:19;26.50;39.10
20171;DHT22;10245;51.344;6.620;2023-06-14T12:48:43;26.40;38.80
20171;DHT22;10245;51.344;6.620;2023-06-14T12:51:07;26.00;38.10
20171;DHT22;10245;51.344;6.620;2023-06-14T12:53:31;26.00;39.60
20171;DHT22;10245;51.344;6.620;2023-06-14T12:55:55;26.00;36.90
20171;DHT22;10245;51.344;6.620;2023-06-14T12:58:18;25.80;38.10
20171;DHT22;10245;51.344;6.620;2023-06-14T13:00:42;26.30;41.20
20171;DHT22;10245;51.344;6.620;2023-06-14T13:03:05;26.20;38.20
20171;DHT22;10245;51.344;6.620;2023-06-14T13:05:29;26.30;37.50
20171;DHT22;10245;51.344;6.620;2023-06-14T13:07:53;26.30;38.60
20171;DHT22;10245;51.344;6.620;2023-06-14T13:10:18;26.40;38.60
20171;DHT22;10245;51.344;6.620;2023-06-14T13:12:41;26.70;39.70
20171;DHT22;10245;51.344;6.620;2023-06-14T13:15:05;26.60;39.60
20171;DHT22;10245;51.344;6.620;2023-06-14T13:17:29;26.80;38.70
20171;DHT22;10245;51.344;6.620;2023-06-14T13:19:55;26.50;38.60
20171;DHT22;10245;51.344;6.620;2023-06-14T13:22:18;26.50;36.20
20171;DHT22;10245;51.344;6.620;2023-06-14T13:24:41;26.10;36.90
20171;DHT22;10245;51.344;6.620;2023-06-14T13:27:06;25.80;37.70
20171;DHT22;10245;51.344;6.620;2023-06-14T13:29:30;26.30;37.10
20171;DHT22;10245;51.344;6.620;2023-06-14T13:31:55;26.30;37.90
20171;DHT22;10245;51.344;6.620;2023-06-14T13:34:18;26.50;36.60
20171;DHT22;10245;51.344;6.620;2023-06-14T13:36:41;26.40;36.40
20171;DHT22;10245;51.344;6.620;2023-06-14T13:39:05;26.40;37.20
20171;DHT22;10245;51.344;6.620;2023-06-14T13:41:28;26.50;37.10
20171;DHT22;10245;51.344;6.620;2023-06-14T13:43:54;26.50;36.30
20171;DHT22;10245;51.344;6.620;2023-06-14T13:46:18;26.20;38.20
20171;DHT22;10245;51.344;6.620;2023-06-14T13:48:41;26.30;36.50
20171;DHT22;10245;51.344;6.620;2023-06-14T13:51:05;26.30;36.80
20171;DHT22;10245;51.344;6.620;2023-06-14T13:53:28;25.90;35.10
20171;DHT22;10245;51.344;6.620;2023-06-14T13:55:52;26.00;38.40
20171;DHT22;10245;51.344;6.620;2023-06-14T13:58:15;26.10;36.80
20171;DHT22;10245;51.344;6.620;2023-06-14T14:00:40;26.20;38.70
20171;DHT22;10245;51.344;6.620;2023-06-14T14:03:03;26.30;38.60
20171;DHT22;10245;51.344;6.620;2023-06-14T14:05:27;26.10;36.80
20171;DHT22;10245;51.344;6.620;2023-06-14T14:07:51;26.30;38.70
20171;DHT22;10245;51.344;6.620;2023-06-14T14:10:15;26.20;36.50
20171;DHT22;10245;51.344;6.620;2023-06-14T14:12:38;26.10;36.80
20171;DHT22;10245;51.344;6.620;2023-06-14T14:15:02;25.90;38.00
20171;DHT22;10245;51.344;6.620;2023-06-14T14:17:27;26.10;37.00
20171;DHT22;10245;51.344;6.620;2023-06-14T14:19:51;26.30;37.60
20171;DHT22;10245;51.344;6.620;2023-06-14T14:22:14;26.40;38.10
20171;DHT22;10245;51.344;6.620;2023-06-14T14:24:37;26.30;39.90
20171;DHT22;10245;51.344;6.620;2023-06-14T14:27:01;26.40;37.40
20171;DHT22;10245;51.344;6.620;2023-06-14T14:29:24;26.20;39.40
20171;DHT22;10245;51.344;6.620;2023-06-14T14:31:50;26.10;39.60
20171;DHT22;10245;51.344;6.620;2023-06-14T14:34:15;26.10;38.10
20171;DHT22;10245;51.344;6.620;2023-06-14T14:36:38;26.10;37.80
20171;DHT22;10245;51.344;6.620;2023-06-14T14:39:04;26.10;37.70
20171;DHT22;10245;51.344;6.620;2023-06-14T14:41:28;26.20;37.20
20171;DHT22;10245;51.344;6.620;2023-06-14T14:43:52;26.00;37.50
20171;DHT22;10245;51.344;6.620;2023-06-14T14:46:15;25.90;37.10
20171;DHT22;10245;51.344;6.620;2023-06-14T14:48:38;26.10;37.30
20171;DHT22;10245;51.344;6.620;2023-06-14T14:51:03;26.20;37.70
20171;DHT22;10245;51.344;6.620;2023-06-14T14:53:26;26.10;39.40
20171;DHT22;10245;51.344;6.620;2023-06-14T14:55:49;26.50;37.50
20171;DHT22;10245;51.344;6.620;2023-06-14T14:58:13;26.50;39.20
20171;DHT22;10245;51.344;6.620;2023-06-14T15:00:38;26.50;37.30
20171;DHT22;10245;51.344;6.620;2023-06-14T15:03:02;26.40;37.30
20171;DHT22;10245;51.344;6.620;2023-06-14T15:05:25;26.00;36.30
20171;DHT22;10245;51.344;6.620;2023-06-14T15:07:50;26.30;36.00
20171;DHT22;10245;51.344;6.620;2023-06-14T15:10:14;26.30;36.30
20171;DHT22;10245;51.344;6.620;2023-06-14T15:12:38;25.90;37.00
20171;DHT22;10245;51.344;6.620;2023-06-14T15:15:01;25.90;36.30
20171;DHT22;10245;51.344;6.620;2023-06-14T15:17:25;26.00;37.30